map of QGY home
QGY - Airport
Location
City:  Gyor-Pér, Gyor-Moson-Sopron, Hungary
Name:Gyor-Pér International Airport
ICAO:LHPR
IATA:QGY

Details
Type:Airport (Aerodrome, Airfield)
Use:Public/Civil, International (customs port of entry)
Latitude:47°37'38"N (47.627097)
Longitude:17°48'30"E (17.808347)
Datum:WGS 1984
Elevation:424 ft (129 m)
Variation:4.72°E (WMM2015v2 magnetic declination)
0.15° annual change
Runways:2
Longest:4757 × 98 ft (1450 × 30 m), paved

Time
Time Zone:UTC+1 (DST+2)
Local Time:

Weather
METAR:LHPR 041345Z 33013KT 9999 SCT020 BKN023 03/M01 Q1029 RMK WHT

Related Locations
Nearby:
Farthest:CHT: 11701 mi / 18831 km
Waitangi [Tuuta], CIT, NZ

Find:

   beyond  
but within

Other Information
Maps:
NOTAMs:
Links:
Sources:

  
  • flag of Hungary
  • flag of Gyor-Moson-Sopron
  

Sectional Chart

Flight Planning
at skyvector.com

Satellite Image

Google Maps Satellite view

 

Copyright © 2004-2019 Karl L. Swartz. All rights reserved.
The Great Circle Mapper name and logo are trademarks of the Great Circle Mapper.
All other trademarks mentioned herein belong to their respective owners.
Please see credits for attibutions and further copyright information.

  Follow gcmap on Facebook Follow gcmap on Twitter GCmap on LinkedIn

hCard Microformat

Geo Microformat